Karin IV — YT2496 — position and weather

sailwx.info

Track history (hours):
 
Tides and Currents Weather Stations Pressure Air Temp Water Temp Dewpoint Dewpoint Depression Visibility Wind Speed Wind Dir Waves Ship Positions

Karin IV

Last reported at 2017-Dec-11 17:00 UTC. Time now 2017-Dec-13 03:43 UTC.
Position N 48°02' E 017°13'.

Length 105 m; draft 0.3 m.

Type: Tanker. MMSI: 279202496.

Date/timePositionNaut miles runAvg speedWind from/ knotsBaromVisibWave heightAir tempDewpointWater temp
2017-Dec-11 17:00N 48°02' E 017°13'4 8.4
2017-Dec-11 16:30N 48°05' E 017°09'4 7.4
2017-Dec-11 16:00N 48°08' E 017°06'510.3
2017-Dec-11 15:30N 48°10' E 016°58'610.5
2017-Dec-11 14:58N 48°08' E 016°51'  
2017-Dec-09 10:24N 48°08' E 016°53'2 4.3
2017-Dec-09 10:00N 48°09' E 016°55'2 4.1
2017-Dec-09 09:30N 48°10' E 016°58'2 4.1
2017-Dec-09 09:00N 48°09' E 017°00'2 4.0
2017-Dec-09 08:30N 48°09' E 017°03'2 4.9
2017-Dec-09 08:01N 48°08' E 017°06'2 4.3
2017-Dec-09 07:31N 48°06' E 017°08'4 7.3
2017-Dec-09 07:01N 48°03' E 017°11'4 8.1
2017-Dec-09 06:31N 48°01' E 017°16'4 8.4
2017-Dec-09 06:01N 47°60' E 017°22'4 8.5
2017-Dec-09 05:31N 47°57' E 017°27'4 8.6
2017-Dec-09 05:01N 47°54' E 017°31'1 2.2
2017-Dec-09 04:30N 47°53' E 017°32'1 0.1
2017-Dec-08 17:56N 47°52' E 017°34'2 4.8
2017-Dec-08 17:29N 47°50' E 017°36'3 6.2
2017-Dec-08 17:00N 47°48' E 017°39'60 5.1
2017-Dec-08 05:11N 47°37' E 019°06'1 0.1
2017-Dec-07 17:39N 47°36' E 019°05'0 3.3
2017-Dec-07 17:30N 47°35' E 019°04'3 6.8
2017-Dec-07 17:00N 47°32' E 019°03'3 6.2
2017-Dec-07 16:30N 47°29' E 019°04'3 6.0
2017-Dec-07 16:01N 47°26' E 019°03'3 5.8
2017-Dec-07 15:27N 47°23' E 019°00'3 6.2
2017-Dec-07 14:55N 47°21' E 018°57'  
2017-Dec-04 10:23N 45°11' E 019°59'0 0.0
2017-Dec-04 09:40N 45°11' E 019°59'0 0.0
2017-Dec-04 09:28N 45°11' E 019°59'0 0.0
2017-Dec-04 09:00N 45°11' E 019°59'0 0.0
2017-Dec-04 08:12N 45°11' E 019°59'0 0.0
2017-Dec-04 08:00N 45°11' E 019°59'0 0.0
2017-Dec-04 07:29N 45°11' E 019°59'0 0.0
2017-Dec-04 07:01N 45°11' E 019°59'0 0.0
2017-Dec-04 06:30N 45°11' E 019°59'0 0.0
2017-Dec-04 05:47N 45°11' E 019°59'0 0.0
2017-Dec-04 05:30N 45°11' E 019°59'0 0.0
2017-Dec-04 05:01N 45°11' E 019°59'0 0.0
2017-Dec-04 04:12N 45°11' E 019°59'0 0.0
2017-Dec-04 04:00N 45°11' E 019°59'0 0.0
2017-Dec-04 03:29N 45°11' E 019°59'0 0.0
2017-Dec-04 03:01N 45°11' E 019°59'0 0.0
2017-Dec-04 02:30N 45°11' E 019°59'0 0.0
2017-Dec-04 01:47N 45°11' E 019°59'0 0.0
2017-Dec-04 01:04N 45°11' E 019°59'0 0.0
2017-Dec-04 01:00N 45°11' E 019°59'0 0.0
2017-Dec-04 00:20N 45°11' E 019°59'0 0.1
2017-Dec-04 00:00N 45°11' E 019°59'0 0.0
2017-Dec-03 23:19N 45°11' E 019°59'0 0.0
2017-Dec-03 22:59N 45°11' E 019°59'0 0.0
2017-Dec-03 22:26N 45°11' E 019°59'0 0.0
2017-Dec-03 21:59N 45°11' E 019°59'0 0.0
2017-Dec-03 21:29N 45°11' E 019°59'0 0.0
2017-Dec-03 20:55N 45°11' E 019°59'0 0.0
2017-Dec-03 20:09N 45°11' E 019°59'0 0.0
2017-Dec-03 20:00N 45°11' E 019°59'0 0.0
2017-Dec-03 19:25N 45°11' E 019°59'0 0.0
2017-Dec-03 19:01N 45°11' E 019°59'0 0.0
2017-Dec-03 18:30N 45°11' E 019°59'0 0.0
2017-Dec-03 17:56N 45°11' E 019°59'0 0.0
2017-Dec-03 17:30N 45°11' E 019°59'0 0.0
2017-Dec-03 17:00N 45°11' E 019°59'0 0.0
2017-Dec-03 16:28N 45°11' E 019°59'0 0.0
2017-Dec-03 16:00N 45°11' E 019°59'0 0.0
2017-Dec-03 15:30N 45°11' E 019°59'0 0.0
2017-Dec-03 15:00N 45°11' E 019°59'0 0.0
2017-Dec-03 14:11N 45°11' E 019°59'0 0.0
2017-Dec-03 14:00N 45°11' E 019°59'0 0.0
2017-Dec-03 13:26N 45°11' E 019°59'0 0.0
2017-Dec-03 12:50N 45°11' E 019°59'0 0.0
2017-Dec-03 12:25N 45°11' E 019°59'0 0.0
2017-Dec-03 12:00N 45°11' E 019°59'0 0.0
2017-Dec-03 11:24N 45°11' E 019°59'0 0.0
2017-Dec-03 11:00N 45°11' E 019°59'0 0.0
2017-Dec-03 10:24N 45°11' E 019°59'0 0.0
2017-Dec-03 10:00N 45°11' E 019°59'0 0.0
2017-Dec-03 09:27N 45°11' E 019°59'0 0.0
2017-Dec-03 08:47N 45°11' E 019°59'0 0.0
2017-Dec-03 08:20N 45°11' E 019°59'0 0.0
2017-Dec-03 07:38N 45°11' E 019°59'0 0.0
2017-Dec-03 07:30N 45°11' E 019°59'0 0.0
2017-Dec-03 07:00N 45°11' E 019°59'0 0.0
2017-Dec-03 06:20N 45°11' E 019°59'0 0.0
2017-Dec-03 06:00N 45°11' E 019°59'0 0.0
2017-Dec-03 05:15N 45°11' E 019°59'0 0.0
2017-Dec-03 04:55N 45°11' E 019°59'0 0.0
2017-Dec-03 04:30N 45°11' E 019°59'0 0.0
2017-Dec-03 03:50N 45°11' E 019°59'0 0.0
2017-Dec-03 03:18N 45°11' E 019°59'0 0.0
2017-Dec-03 02:32N 45°11' E 019°59'0 0.1
2017-Dec-03 02:31N 45°11' E 019°59'0 0.0
2017-Dec-03 02:00N 45°11' E 019°59'0 0.0
2017-Dec-03 01:30N 45°11' E 019°59'0 0.0
2017-Dec-03 00:48N 45°11' E 019°59'0 0.0
2017-Dec-03 00:30N 45°11' E 019°59'0 0.0
2017-Dec-02 23:56N 45°11' E 019°59'0 0.0
2017-Dec-02 23:09N 45°11' E 019°59'0 0.0
2017-Dec-02 22:58N 45°11' E 019°59'0 0.0
2017-Dec-02 22:08N 45°11' E 019°59'0 0.0
2017-Dec-02 22:00N 45°11' E 019°59'0 0.0
2017-Dec-02 21:21N 45°11' E 019°59'0 0.0
2017-Dec-02 20:59N 45°11' E 019°59'0 0.0
2017-Dec-02 20:30N 45°11' E 019°59'0 0.0
2017-Dec-02 19:59N 45°11' E 019°59'0 0.0
2017-Dec-02 19:15N 45°11' E 019°59'0 0.0
2017-Dec-02 19:00N 45°11' E 019°59'0 0.0
2017-Dec-02 18:30N 45°11' E 019°59'0 0.0
2017-Dec-02 17:51N 45°11' E 019°59'0 0.0
2017-Dec-02 17:30N 45°11' E 019°59'0 0.0
2017-Dec-02 16:59N 45°11' E 019°59'0 0.0
2017-Dec-02 16:30N 45°11' E 019°59'0 0.0
2017-Dec-02 16:00N 45°11' E 019°59'0 0.0
2017-Dec-02 15:30N 45°11' E 019°59'0 0.0
2017-Dec-02 14:59N 45°11' E 019°59'0 0.0
2017-Dec-02 14:30N 45°11' E 019°59'0 0.0
2017-Dec-02 14:01N 45°11' E 019°59'0 0.1
2017-Dec-02 13:13N 45°11' E 019°59'0 0.1
2017-Dec-02 13:00N 45°11' E 019°59'0 0.1
2017-Dec-02 12:13N 45°11' E 019°59'0 0.0
2017-Dec-02 12:00N 45°11' E 019°59'0 0.0
2017-Dec-02 11:30N 45°11' E 019°59'0 0.0
2017-Dec-02 10:59N 45°11' E 019°59'0 0.0
2017-Dec-02 10:26N 45°11' E 019°59'0 0.0
2017-Dec-02 09:57N 45°11' E 019°59'0 0.0
2017-Dec-02 09:20N 45°11' E 019°59'0 0.0
2017-Dec-02 08:56N 45°11' E 019°59'0 0.0
2017-Dec-02 08:25N 45°11' E 019°59'0 0.0
2017-Dec-02 07:36N 45°11' E 019°59'0 0.0
2017-Dec-02 07:28N 45°11' E 019°59'0 0.0
2017-Dec-02 06:48N 45°11' E 019°59'0 0.0
2017-Dec-02 06:30N 45°11' E 019°59'0 0.0
2017-Dec-02 06:00N 45°11' E 019°59'0 0.0
2017-Dec-02 05:30N 45°11' E 019°59'0 0.0
2017-Dec-02 05:00N 45°11' E 019°59'0 0.0
2017-Dec-02 04:30N 45°11' E 019°59'0 0.0
2017-Dec-02 04:00N 45°11' E 019°59'0 0.0
2017-Dec-02 03:07N 45°11' E 019°59'0 0.0
2017-Dec-02 02:53N 45°11' E 019°59'0 0.0
2017-Dec-02 02:27N 45°11' E 019°59'0 0.0
2017-Dec-02 01:49N 45°11' E 019°59'0 0.0
2017-Dec-02 01:30N 45°11' E 019°59'0 0.0
2017-Dec-02 01:00N 45°11' E 019°59'0 0.0
2017-Dec-02 00:24N 45°11' E 019°59'0 0.0
2017-Dec-01 23:54N 45°11' E 019°59'0 0.0
2017-Dec-01 23:29N 45°11' E 019°59'0 0.0
2017-Dec-01 23:00N 45°11' E 019°59'0 0.0
2017-Dec-01 22:30N 45°11' E 019°59'0 0.0
2017-Dec-01 21:49N 45°11' E 019°59'0 0.0
2017-Dec-01 21:30N 45°11' E 019°59'0 0.0
2017-Dec-01 21:00N 45°11' E 019°59'0 0.0
2017-Dec-01 20:22N 45°11' E 019°59'0 0.0
2017-Dec-01 20:00N 45°11' E 019°59'0 0.0
2017-Dec-01 19:30N 45°11' E 019°59'0 0.0
2017-Dec-01 19:00N 45°11' E 019°59'0 0.0
2017-Dec-01 18:31N 45°11' E 019°59'0 0.0
2017-Dec-01 18:00N 45°11' E 019°59'0 0.0
2017-Dec-01 17:15N 45°11' E 019°59'  
Track history (hours):
 
Tides and Currents Weather Stations Pressure Air Temp Water Temp Dewpoint Dewpoint Depression Visibility Wind Speed Wind Dir Waves Ship Positions

Karin IV

Last reported at 2017-Dec-11 17:00 UTC. Time now 2017-Dec-13 03:43 UTC.
Position N 48°02' E 017°13'.

Length 105 m; draft 0.3 m.

Type: Tanker. MMSI: 279202496.

Date/timePositionNaut miles runAvg speedWind from/ knotsBaromVisibWave heightAir tempDewpointWater temp
2017-Dec-11 17:00N 48°02' E 017°13'4 8.4
2017-Dec-11 16:30N 48°05' E 017°09'4 7.4
2017-Dec-11 16:00N 48°08' E 017°06'510.3
2017-Dec-11 15:30N 48°10' E 016°58'610.5
2017-Dec-11 14:58N 48°08' E 016°51'  
2017-Dec-09 10:24N 48°08' E 016°53'2 4.3
2017-Dec-09 10:00N 48°09' E 016°55'2 4.1
2017-Dec-09 09:30N 48°10' E 016°58'2 4.1
2017-Dec-09 09:00N 48°09' E 017°00'2 4.0
2017-Dec-09 08:30N 48°09' E 017°03'2 4.9
2017-Dec-09 08:01N 48°08' E 017°06'2 4.3
2017-Dec-09 07:31N 48°06' E 017°08'4 7.3
2017-Dec-09 07:01N 48°03' E 017°11'4 8.1
2017-Dec-09 06:31N 48°01' E 017°16'4 8.4
2017-Dec-09 06:01N 47°60' E 017°22'4 8.5
2017-Dec-09 05:31N 47°57' E 017°27'4 8.6
2017-Dec-09 05:01N 47°54' E 017°31'1 2.2
2017-Dec-09 04:30N 47°53' E 017°32'1 0.1
2017-Dec-08 17:56N 47°52' E 017°34'2 4.8
2017-Dec-08 17:29N 47°50' E 017°36'3 6.2
2017-Dec-08 17:00N 47°48' E 017°39'60 5.1
2017-Dec-08 05:11N 47°37' E 019°06'1 0.1
2017-Dec-07 17:39N 47°36' E 019°05'0 3.3
2017-Dec-07 17:30N 47°35' E 019°04'3 6.8
2017-Dec-07 17:00N 47°32' E 019°03'3 6.2
2017-Dec-07 16:30N 47°29' E 019°04'3 6.0
2017-Dec-07 16:01N 47°26' E 019°03'3 5.8
2017-Dec-07 15:27N 47°23' E 019°00'3 6.2
2017-Dec-07 14:55N 47°21' E 018°57'  
2017-Dec-04 10:23N 45°11' E 019°59'0 0.0
2017-Dec-04 09:40N 45°11' E 019°59'0 0.0
2017-Dec-04 09:28N 45°11' E 019°59'0 0.0
2017-Dec-04 09:00N 45°11' E 019°59'0 0.0
2017-Dec-04 08:12N 45°11' E 019°59'0 0.0
2017-Dec-04 08:00N 45°11' E 019°59'0 0.0
2017-Dec-04 07:29N 45°11' E 019°59'0 0.0
2017-Dec-04 07:01N 45°11' E 019°59'0 0.0
2017-Dec-04 06:30N 45°11' E 019°59'0 0.0
2017-Dec-04 05:47N 45°11' E 019°59'0 0.0
2017-Dec-04 05:30N 45°11' E 019°59'0 0.0
2017-Dec-04 05:01N 45°11' E 019°59'0 0.0
2017-Dec-04 04:12N 45°11' E 019°59'0 0.0
2017-Dec-04 04:00N 45°11' E 019°59'0 0.0
2017-Dec-04 03:29N 45°11' E 019°59'0 0.0
2017-Dec-04 03:01N 45°11' E 019°59'0 0.0
2017-Dec-04 02:30N 45°11' E 019°59'0 0.0
2017-Dec-04 01:47N 45°11' E 019°59'0 0.0
2017-Dec-04 01:04N 45°11' E 019°59'0 0.0
2017-Dec-04 01:00N 45°11' E 019°59'0 0.0
2017-Dec-04 00:20N 45°11' E 019°59'0 0.1
2017-Dec-04 00:00N 45°11' E 019°59'0 0.0
2017-Dec-03 23:19N 45°11' E 019°59'0 0.0
2017-Dec-03 22:59N 45°11' E 019°59'0 0.0
2017-Dec-03 22:26N 45°11' E 019°59'0 0.0
2017-Dec-03 21:59N 45°11' E 019°59'0 0.0
2017-Dec-03 21:29N 45°11' E 019°59'0 0.0
2017-Dec-03 20:55N 45°11' E 019°59'0 0.0
2017-Dec-03 20:09N 45°11' E 019°59'0 0.0
2017-Dec-03 20:00N 45°11' E 019°59'0 0.0
2017-Dec-03 19:25N 45°11' E 019°59'0 0.0
2017-Dec-03 19:01N 45°11' E 019°59'0 0.0
2017-Dec-03 18:30N 45°11' E 019°59'0 0.0
2017-Dec-03 17:56N 45°11' E 019°59'0 0.0
2017-Dec-03 17:30N 45°11' E 019°59'0 0.0
2017-Dec-03 17:00N 45°11' E 019°59'0 0.0
2017-Dec-03 16:28N 45°11' E 019°59'0 0.0
2017-Dec-03 16:00N 45°11' E 019°59'0 0.0
2017-Dec-03 15:30N 45°11' E 019°59'0 0.0
2017-Dec-03 15:00N 45°11' E 019°59'0 0.0
2017-Dec-03 14:11N 45°11' E 019°59'0 0.0
2017-Dec-03 14:00N 45°11' E 019°59'0 0.0
2017-Dec-03 13:26N 45°11' E 019°59'0 0.0
2017-Dec-03 12:50N 45°11' E 019°59'0 0.0
2017-Dec-03 12:25N 45°11' E 019°59'0 0.0
2017-Dec-03 12:00N 45°11' E 019°59'0 0.0
2017-Dec-03 11:24N 45°11' E 019°59'0 0.0
2017-Dec-03 11:00N 45°11' E 019°59'0 0.0
2017-Dec-03 10:24N 45°11' E 019°59'0 0.0
2017-Dec-03 10:00N 45°11' E 019°59'0 0.0
2017-Dec-03 09:27N 45°11' E 019°59'0 0.0
2017-Dec-03 08:47N 45°11' E 019°59'0 0.0
2017-Dec-03 08:20N 45°11' E 019°59'0 0.0
2017-Dec-03 07:38N 45°11' E 019°59'0 0.0
2017-Dec-03 07:30N 45°11' E 019°59'0 0.0
2017-Dec-03 07:00N 45°11' E 019°59'0 0.0
2017-Dec-03 06:20N 45°11' E 019°59'0 0.0
2017-Dec-03 06:00N 45°11' E 019°59'0 0.0
2017-Dec-03 05:15N 45°11' E 019°59'0 0.0
2017-Dec-03 04:55N 45°11' E 019°59'0 0.0
2017-Dec-03 04:30N 45°11' E 019°59'0 0.0
2017-Dec-03 03:50N 45°11' E 019°59'0 0.0
2017-Dec-03 03:18N 45°11' E 019°59'0 0.0
2017-Dec-03 02:32N 45°11' E 019°59'0 0.1
2017-Dec-03 02:31N 45°11' E 019°59'0 0.0
2017-Dec-03 02:00N 45°11' E 019°59'0 0.0
2017-Dec-03 01:30N 45°11' E 019°59'0 0.0
2017-Dec-03 00:48N 45°11' E 019°59'0 0.0
2017-Dec-03 00:30N 45°11' E 019°59'0 0.0
2017-Dec-02 23:56N 45°11' E 019°59'0 0.0
2017-Dec-02 23:09N 45°11' E 019°59'0 0.0
2017-Dec-02 22:58N 45°11' E 019°59'0 0.0
2017-Dec-02 22:08N 45°11' E 019°59'0 0.0
2017-Dec-02 22:00N 45°11' E 019°59'0 0.0
2017-Dec-02 21:21N 45°11' E 019°59'0 0.0
2017-Dec-02 20:59N 45°11' E 019°59'0 0.0
2017-Dec-02 20:30N 45°11' E 019°59'0 0.0
2017-Dec-02 19:59N 45°11' E 019°59'0 0.0
2017-Dec-02 19:15N 45°11' E 019°59'0 0.0
2017-Dec-02 19:00N 45°11' E 019°59'0 0.0
2017-Dec-02 18:30N 45°11' E 019°59'0 0.0
2017-Dec-02 17:51N 45°11' E 019°59'0 0.0
2017-Dec-02 17:30N 45°11' E 019°59'0 0.0
2017-Dec-02 16:59N 45°11' E 019°59'0 0.0
2017-Dec-02 16:30N 45°11' E 019°59'0 0.0
2017-Dec-02 16:00N 45°11' E 019°59'0 0.0
2017-Dec-02 15:30N 45°11' E 019°59'0 0.0
2017-Dec-02 14:59N 45°11' E 019°59'0 0.0
2017-Dec-02 14:30N 45°11' E 019°59'0 0.0
2017-Dec-02 14:01N 45°11' E 019°59'0 0.1
2017-Dec-02 13:13N 45°11' E 019°59'0 0.1
2017-Dec-02 13:00N 45°11' E 019°59'0 0.1
2017-Dec-02 12:13N 45°11' E 019°59'0 0.0
2017-Dec-02 12:00N 45°11' E 019°59'0 0.0
2017-Dec-02 11:30N 45°11' E 019°59'0 0.0
2017-Dec-02 10:59N 45°11' E 019°59'0 0.0
2017-Dec-02 10:26N 45°11' E 019°59'0 0.0
2017-Dec-02 09:57N 45°11' E 019°59'0 0.0
2017-Dec-02 09:20N 45°11' E 019°59'0 0.0
2017-Dec-02 08:56N 45°11' E 019°59'0 0.0
2017-Dec-02 08:25N 45°11' E 019°59'0 0.0
2017-Dec-02 07:36N 45°11' E 019°59'0 0.0
2017-Dec-02 07:28N 45°11' E 019°59'0 0.0
2017-Dec-02 06:48N 45°11' E 019°59'0 0.0
2017-Dec-02 06:30N 45°11' E 019°59'0 0.0
2017-Dec-02 06:00N 45°11' E 019°59'0 0.0
2017-Dec-02 05:30N 45°11' E 019°59'0 0.0
2017-Dec-02 05:00N 45°11' E 019°59'0 0.0
2017-Dec-02 04:30N 45°11' E 019°59'0 0.0
2017-Dec-02 04:00N 45°11' E 019°59'0 0.0
2017-Dec-02 03:07N 45°11' E 019°59'0 0.0
2017-Dec-02 02:53N 45°11' E 019°59'0 0.0
2017-Dec-02 02:27N 45°11' E 019°59'0 0.0
2017-Dec-02 01:49N 45°11' E 019°59'0 0.0
2017-Dec-02 01:30N 45°11' E 019°59'0 0.0
2017-Dec-02 01:00N 45°11' E 019°59'0 0.0
2017-Dec-02 00:24N 45°11' E 019°59'0 0.0
2017-Dec-01 23:54N 45°11' E 019°59'0 0.0
2017-Dec-01 23:29N 45°11' E 019°59'0 0.0
2017-Dec-01 23:00N 45°11' E 019°59'0 0.0
2017-Dec-01 22:30N 45°11' E 019°59'0 0.0
2017-Dec-01 21:49N 45°11' E 019°59'0 0.0
2017-Dec-01 21:30N 45°11' E 019°59'0 0.0
2017-Dec-01 21:00N 45°11' E 019°59'0 0.0
2017-Dec-01 20:22N 45°11' E 019°59'0 0.0
2017-Dec-01 20:00N 45°11' E 019°59'0 0.0
2017-Dec-01 19:30N 45°11' E 019°59'0 0.0
2017-Dec-01 19:00N 45°11' E 019°59'0 0.0
2017-Dec-01 18:31N 45°11' E 019°59'0 0.0
2017-Dec-01 18:00N 45°11' E 019°59'0 0.0
2017-Dec-01 17:15N 45°11' E 019°59'  

Dump ship's entire track history